This is the latest recevied weather packets stored in our database for station/object WX1NWA. If no packets are shown the sender has not sent any weather packets the latest 10 day(s).
| Time | Temp. | Humidity | Pressure | Rain* | Wind** | Luminosity | Snow |
|---|---|---|---|---|---|---|---|
| 1777490880 | 16.67° C | 74% | 1019.2 hPa | 0 mm | - | 348 W/m² | - |
| 1777490576 | 16.67° C | 74% | 1019.8 hPa | 0 mm | - | 275 W/m² | - |
| 1777490272 | 16.67° C | 75% | 1019.8 hPa | 0 mm | - | 374 W/m² | - |
| 1777489970 | 17.22° C | 73% | 1019.4 hPa | 0 mm | - | 337 W/m² | - |
| 1777489668 | 17.22° C | 74% | 1019.6 hPa | 0 mm | - | 252 W/m² | - |
| 1777489364 | 16.67° C | 75% | 1019.6 hPa | 0 mm | - | 432 W/m² | - |
| 1777489061 | 17.22° C | 75% | 1019.1 hPa | 0 mm | - | 384 W/m² | - |
| 1777488758 | 17.78° C | 71% | 1019.3 hPa | 0 mm | - | 293 W/m² | - |
| 1777488455 | 16.67° C | 74% | 1019.1 hPa | 0 mm | - | 702 W/m² | - |
| 1777488154 | 16.11° C | 75% | 1019.1 hPa | 0 mm | - | 317 W/m² | - |
| 1777487852 | 16.11° C | 74% | 1019.2 hPa | 0 mm | - | 559 W/m² | - |
| 1777487549 | 17.22° C | 71% | 1019.1 hPa | 0 mm | - | 364 W/m² | - |
| 1777487246 | 16.11° C | 76% | 1019.1 hPa | 0 mm | - | 734 W/m² | - |
| 1777486942 | 16.67° C | 75% | 1019.2 hPa | 0 mm | - | 347 W/m² | - |
| 1777486639 | 17.22° C | 73% | 1019.8 hPa | 0 mm | - | 884 W/m² | - |
| 1777486337 | 17.78° C | 71% | 1019.7 hPa | 0 mm | - | 314 W/m² | - |
| 1777486034 | 17.78° C | 73% | 1019.6 hPa | 0 mm | - | 645 W/m² | - |
| 1777485731 | 17.22° C | 74% | 1019.7 hPa | 0 mm | - | 638 W/m² | - |
| 1777485426 | 16.67° C | 74% | 1019.7 hPa | 0 mm | - | 783 W/m² | - |
| 1777485122 | 17.22° C | 72% | 1019.9 hPa | 0 mm | - | 904 W/m² | - |
| 1777484819 | 16.67° C | 75% | 1019.8 hPa | 0 mm | - | 470 W/m² | - |
| 1777484516 | 16.67° C | 74% | 1020.1 hPa | 0 mm | - | 910 W/m² | - |
| 1777484213 | 16.67° C | 74% | 1020 hPa | 0 mm | - | 511 W/m² | - |
| 1777483909 | 17.78° C | 71% | 1020.3 hPa | 0 mm | - | 894 W/m² | - |
| 1777483606 | 17.22° C | 74% | 1020.1 hPa | 0 mm | - | 371 W/m² | - |
* Rain latest hour (hover to see other rain measurements)
** Current wind speed in m/s (hover to see current wind gust speed)